Elmendorf Air Force Base Airport (EDF)

 

Airport Diagram
Current Weather/Forecast (VFR Conditions)
METAR PAED 312156Z 10005KT 10SM SCT065 BKN130 BKN170 09/M01 A2871 RMK AO2A PK WND 08032/35 SLP718 T00861007 $
TAF TAF AMD PAED 312207Z 3122/0201 15009KT 9999 VCSH SCT060 BKN080 WS020/14030KT 520007 QNH2865INS TEMPO 3122/3124 17025G35KT 530007 BECMG 0104/0106 22015KT 8000 -RASN SCT020 BKN030 OVC050 620307 QNH2858INS BECMG 0106/0107 24010G15KT 3200 -SN SCT008 BKN020 OVC035 620209 510206 QNH2866INS BECMG 0117/0118 23012KT 9999 NSW SCT010 BKN040 QNH2893INS TX09/0101Z TNM05/0118Z

All Charts

Inbound Traffic (Arrivals)

No inbound traffic.


Outbound Traffic (Departures)

No outbound traffic.